Saturday, February 6, 2016, 3:14 PM EST

KOXB, Ocean City Municipal Airport

Location: Berlin, MD, United States Lat: 38.317
Local Time: 3:14 PM EST (20:14 GMT) Lon: -75.117
Time Zone: US/Eastern Elev: 13 ft

Show me the last for .
Show Decoded

2016-02-06 14:53 METAR KOXB 061953Z AUTO 17003KT 10SM CLR 04/M03 A3035 RMK AO2 SLP277 T00441028
                 TSNO =
2016-02-06 13:53 METAR KOXB 061853Z AUTO VRB04KT 10SM CLR 05/M02 A3038 RMK AO2 SLP286 T00501022
                 TSNO =
2016-02-06 12:53 METAR KOXB 061753Z AUTO 16007KT 10SM CLR 04/M03 A3041 RMK AO2 SLP296 T00441028
                 10050 21028 58023 TSNO =
2016-02-06 11:53 METAR KOXB 061653Z AUTO 13005KT 10SM CLR 04/M02 A3045 RMK AO2 SLP311 T00391022
                 TSNO =
2016-02-06 10:53 METAR KOXB 061553Z AUTO 12004KT 10SM CLR 04/M03 A3048 RMK AO2 SLP320 T00391028
                 TSNO =
2016-02-06 09:53 METAR KOXB 061453Z AUTO 10003KT 10SM CLR 04/M04 A3047 RMK AO2 SLP319 T00391039
                 50009 TSNO =
2016-02-06 08:53 METAR KOXB 061353Z AUTO 00000KT 10SM CLR 01/M04 A3048 RMK AO2 SLP320 T00111039
                 TSNO =
2016-02-06 07:53 METAR KOXB 061253Z AUTO 33003KT 10SM CLR M01/M03 A3047 RMK AO2 SLP318 T10061033
                 TSNO =
2016-02-06 06:53 METAR KOXB 061153Z AUTO 00000KT 10SM CLR M03/M04 A3045 RMK AO2 SLP310 70022
                 T10281044 11011 21033 51013 TSNO =
2016-02-06 05:53 METAR KOXB 061053Z AUTO 33004KT 10SM CLR M03/M05 A3044 RMK AO2 SLP307 T10281050
                 TSNO =
2016-02-06 04:53 METAR KOXB 060953Z AUTO 33004KT 10SM CLR M02/M06 A3043 RMK AO2 SLP303 T10221056
                 TSNO =
2016-02-06 03:53 METAR KOXB 060853Z AUTO 32003KT 10SM CLR M02/M06 A3041 RMK AO2 SLP297 T10221056
                 51007 TSNO =
2016-02-06 02:53 METAR KOXB 060753Z AUTO 32004KT 10SM CLR M02/M06 A3041 RMK AO2 SLP298 T10171056
                 TSNO =
2016-02-06 01:53 METAR KOXB 060653Z AUTO 31004KT 10SM CLR M02/M06 A3039 RMK AO2 SLP292 T10171056
                 TSNO =
2016-02-06 00:53 METAR KOXB 060553Z AUTO 32003KT 10SM CLR M01/M05 A3039 RMK AO2 SLP290 T10111050
                 10028 21011 51009 TSNO =
2016-02-05 23:53 METAR KOXB 060453Z AUTO 32006KT 10SM CLR 00/M05 A3038 RMK AO2 SLP289 T00001050
                 400611006 TSNO =
2016-02-05 22:53 METAR KOXB 060353Z AUTO 32006KT 10SM CLR 01/M05 A3038 RMK AO2 SLP285 T00061050
                 TSNO =
2016-02-05 21:53 METAR KOXB 060253Z AUTO 31005KT 10SM CLR 01/M05 A3036 RMK AO2 SLP281 T00111050
                 53012 TSNO =
2016-02-05 20:53 METAR KOXB 060153Z AUTO 33007KT 10SM CLR 02/M04 A3034 RMK AO2 SLP273 T00171044
                 TSNO =
2016-02-05 19:53 METAR KOXB 060053Z AUTO 32007KT 10SM CLR 02/M05 A3034 RMK AO2 SLP274 T00221050
                 TSNO =
2016-02-05 18:53 METAR KOXB 052353Z AUTO 31007KT 10SM CLR 03/M05 A3033 RMK AO2 SLP269 60001
                 T00281050 10061 20028 53026 TSNO =
2016-02-05 17:53 METAR KOXB 052253Z AUTO 33010G15KT 10SM CLR 03/M04 A3029 RMK AO2 SLP257
                 T00331044 TSNO =
2016-02-05 16:53 METAR KOXB 052153Z AUTO 31011G17KT 10SM FEW050 04/M03 A3027 RMK AO2 SLP248
                 T00441028 TSNO =
2016-02-05 15:53 METAR KOXB 052053Z AUTO 32010G19KT 10SM FEW030 SCT047 BKN060 04/M01 A3025 RMK
                 AO2 RAE04B29E41 SLP243 P0001 60001 T00441011 51020 TSNO =

Support USWX by starting your Amazon purchase here.